sensor_id;sensor_type;location;lat;lon;timestamp;P1;durP1;ratioP1;P2;durP2;ratioP2
20623;SDS011;10471;42.736;23.346;2022-12-26T00:01:16;222.10;;;91.17;;
20623;SDS011;10471;42.736;23.346;2022-12-26T00:03:44;159.00;;;77.27;;
20623;SDS011;10471;42.736;23.346;2022-12-26T00:06:16;135.10;;;65.60;;
20623;SDS011;10471;42.736;23.346;2022-12-26T00:08:45;126.93;;;68.70;;
20623;SDS011;10471;42.736;23.346;2022-12-26T00:11:11;132.03;;;64.93;;
20623;SDS011;10471;42.736;23.346;2022-12-26T00:13:37;108.90;;;55.57;;
20623;SDS011;10471;42.736;23.346;2022-12-26T00:16:13;119.37;;;61.47;;
20623;SDS011;10471;42.736;23.346;2022-12-26T00:18:40;150.10;;;71.73;;
20623;SDS011;10471;42.736;23.346;2022-12-26T00:21:06;148.00;;;70.43;;
20623;SDS011;10471;42.736;23.346;2022-12-26T00:23:34;123.43;;;58.73;;
20623;SDS011;10471;42.736;23.346;2022-12-26T00:26:03;78.93;;;40.57;;
20623;SDS011;10471;42.736;23.346;2022-12-26T00:28:48;96.03;;;50.37;;
20623;SDS011;10471;42.736;23.346;2022-12-26T00:31:14;108.03;;;54.93;;
20623;SDS011;10471;42.736;23.346;2022-12-26T00:33:46;109.10;;;54.27;;
20623;SDS011;10471;42.736;23.346;2022-12-26T00:36:13;105.40;;;50.90;;
20623;SDS011;10471;42.736;23.346;2022-12-26T00:38:40;93.00;;;50.13;;
20623;SDS011;10471;42.736;23.346;2022-12-26T00:41:08;97.67;;;51.47;;
20623;SDS011;10471;42.736;23.346;2022-12-26T00:43:34;88.67;;;50.53;;
20623;SDS011;10471;42.736;23.346;2022-12-26T00:46:00;72.67;;;39.90;;
20623;SDS011;10471;42.736;23.346;2022-12-26T00:48:26;73.80;;;41.27;;
20623;SDS011;10471;42.736;23.346;2022-12-26T00:50:52;54.03;;;30.27;;
20623;SDS011;10471;42.736;23.346;2022-12-26T00:53:17;63.23;;;33.90;;
20623;SDS011;10471;42.736;23.346;2022-12-26T00:55:43;75.67;;;43.80;;
20623;SDS011;10471;42.736;23.346;2022-12-26T00:58:08;58.57;;;33.30;;
20623;SDS011;10471;42.736;23.346;2022-12-26T01:00:34;73.67;;;41.33;;
20623;SDS011;10471;42.736;23.346;2022-12-26T01:03:00;77.03;;;43.80;;
20623;SDS011;10471;42.736;23.346;2022-12-26T01:05:26;78.80;;;45.17;;
20623;SDS011;10471;42.736;23.346;2022-12-26T01:07:51;68.77;;;39.33;;
20623;SDS011;10471;42.736;23.346;2022-12-26T01:10:16;67.30;;;37.20;;
20623;SDS011;10471;42.736;23.346;2022-12-26T01:12:42;70.17;;;38.67;;
20623;SDS011;10471;42.736;23.346;2022-12-26T01:15:07;73.20;;;39.80;;
20623;SDS011;10471;42.736;23.346;2022-12-26T01:17:33;75.07;;;42.37;;
20623;SDS011;10471;42.736;23.346;2022-12-26T01:19:59;71.77;;;39.63;;
20623;SDS011;10471;42.736;23.346;2022-12-26T01:22:25;73.93;;;38.13;;
20623;SDS011;10471;42.736;23.346;2022-12-26T01:24:54;74.43;;;38.60;;
20623;SDS011;10471;42.736;23.346;2022-12-26T01:27:23;70.83;;;37.53;;
20623;SDS011;10471;42.736;23.346;2022-12-26T01:29:50;72.13;;;39.73;;
20623;SDS011;10471;42.736;23.346;2022-12-26T01:32:18;77.83;;;39.47;;
20623;SDS011;10471;42.736;23.346;2022-12-26T01:34:43;98.77;;;45.97;;
20623;SDS011;10471;42.736;23.346;2022-12-26T01:37:12;108.47;;;56.20;;
20623;SDS011;10471;42.736;23.346;2022-12-26T01:39:38;87.60;;;48.27;;
20623;SDS011;10471;42.736;23.346;2022-12-26T01:42:13;80.50;;;43.30;;
20623;SDS011;10471;42.736;23.346;2022-12-26T01:47:40;103.70;;;53.53;;
20623;SDS011;10471;42.736;23.346;2022-12-26T01:50:16;105.80;;;52.73;;
20623;SDS011;10471;42.736;23.346;2022-12-26T01:52:47;130.60;;;62.33;;
20623;SDS011;10471;42.736;23.346;2022-12-26T01:55:13;126.30;;;61.20;;
20623;SDS011;10471;42.736;23.346;2022-12-26T01:57:43;137.83;;;66.10;;
20623;SDS011;10471;42.736;23.346;2022-12-26T02:00:11;107.37;;;53.07;;
20623;SDS011;10471;42.736;23.346;2022-12-26T02:02:37;87.27;;;44.53;;
20623;SDS011;10471;42.736;23.346;2022-12-26T02:05:23;89.50;;;44.10;;
20623;SDS011;10471;42.736;23.346;2022-12-26T02:08:10;86.87;;;45.13;;
20623;SDS011;10471;42.736;23.346;2022-12-26T02:10:47;92.07;;;46.93;;
20623;SDS011;10471;42.736;23.346;2022-12-26T02:13:17;111.10;;;52.20;;
20623;SDS011;10471;42.736;23.346;2022-12-26T02:15:44;119.37;;;54.57;;
20623;SDS011;10471;42.736;23.346;2022-12-26T02:18:10;98.67;;;50.07;;
20623;SDS011;10471;42.736;23.346;2022-12-26T02:20:54;88.57;;;44.70;;
20623;SDS011;10471;42.736;23.346;2022-12-26T02:23:46;78.57;;;40.77;;
20623;SDS011;10471;42.736;23.346;2022-12-26T02:39:50;77.73;;;42.40;;
20623;SDS011;10471;42.736;23.346;2022-12-26T02:48:19;75.53;;;38.80;;
20623;SDS011;10471;42.736;23.346;2022-12-26T02:54:14;83.27;;;41.93;;
20623;SDS011;10471;42.736;23.346;2022-12-26T02:57:23;82.70;;;42.20;;
20623;SDS011;10471;42.736;23.346;2022-12-26T03:00:16;82.90;;;42.57;;
20623;SDS011;10471;42.736;23.346;2022-12-26T03:03:06;79.20;;;42.60;;
20623;SDS011;10471;42.736;23.346;2022-12-26T03:06:02;74.70;;;41.77;;
20623;SDS011;10471;42.736;23.346;2022-12-26T03:11:43;71.10;;;39.97;;
20623;SDS011;10471;42.736;23.346;2022-12-26T03:14:33;75.67;;;41.10;;
20623;SDS011;10471;42.736;23.346;2022-12-26T03:17:05;71.43;;;39.57;;
20623;SDS011;10471;42.736;23.346;2022-12-26T03:19:55;72.40;;;39.50;;
20623;SDS011;10471;42.736;23.346;2022-12-26T03:22:47;70.63;;;39.40;;
20623;SDS011;10471;42.736;23.346;2022-12-26T03:25:45;71.80;;;39.77;;
20623;SDS011;10471;42.736;23.346;2022-12-26T03:28:28;89.33;;;42.37;;
20623;SDS011;10471;42.736;23.346;2022-12-26T03:30:54;84.47;;;40.47;;
20623;SDS011;10471;42.736;23.346;2022-12-26T03:33:24;76.80;;;41.33;;
20623;SDS011;10471;42.736;23.346;2022-12-26T03:42:12;94.57;;;42.60;;
20623;SDS011;10471;42.736;23.346;2022-12-26T03:45:13;100.47;;;45.30;;
20623;SDS011;10471;42.736;23.346;2022-12-26T03:48:20;98.90;;;43.17;;
20623;SDS011;10471;42.736;23.346;2022-12-26T03:51:18;102.60;;;43.20;;
20623;SDS011;10471;42.736;23.346;2022-12-26T03:57:05;112.27;;;50.10;;
20623;SDS011;10471;42.736;23.346;2022-12-26T04:00:02;107.93;;;45.97;;
20623;SDS011;10471;42.736;23.346;2022-12-26T04:02:49;112.10;;;45.80;;
20623;SDS011;10471;42.736;23.346;2022-12-26T04:05:37;104.73;;;46.80;;
20623;SDS011;10471;42.736;23.346;2022-12-26T04:08:27;119.67;;;48.40;;
20623;SDS011;10471;42.736;23.346;2022-12-26T04:11:17;146.23;;;59.93;;
20623;SDS011;10471;42.736;23.346;2022-12-26T04:14:05;158.47;;;64.27;;
20623;SDS011;10471;42.736;23.346;2022-12-26T04:17:04;148.43;;;63.93;;
20623;SDS011;10471;42.736;23.346;2022-12-26T04:25:26;110.70;;;48.37;;
20623;SDS011;10471;42.736;23.346;2022-12-26T04:28:15;112.37;;;47.77;;
20623;SDS011;10471;42.736;23.346;2022-12-26T04:31:05;142.10;;;50.23;;
20623;SDS011;10471;42.736;23.346;2022-12-26T04:34:05;99.27;;;46.37;;
20623;SDS011;10471;42.736;23.346;2022-12-26T04:36:56;106.43;;;47.30;;
20623;SDS011;10471;42.736;23.346;2022-12-26T04:39:43;94.30;;;42.93;;
20623;SDS011;10471;42.736;23.346;2022-12-26T04:42:30;120.87;;;43.50;;
20623;SDS011;10471;42.736;23.346;2022-12-26T04:45:15;117.47;;;44.60;;
20623;SDS011;10471;42.736;23.346;2022-12-26T04:47:41;123.53;;;49.20;;
20623;SDS011;10471;42.736;23.346;2022-12-26T04:50:27;172.70;;;58.50;;
20623;SDS011;10471;42.736;23.346;2022-12-26T04:52:52;161.23;;;59.73;;
20623;SDS011;10471;42.736;23.346;2022-12-26T04:55:27;213.03;;;71.53;;
20623;SDS011;10471;42.736;23.346;2022-12-26T04:57:55;153.40;;;58.90;;
20623;SDS011;10471;42.736;23.346;2022-12-26T05:00:21;145.50;;;57.83;;
20623;SDS011;10471;42.736;23.346;2022-12-26T05:02:52;158.10;;;57.33;;
20623;SDS011;10471;42.736;23.346;2022-12-26T05:05:46;132.57;;;53.97;;
20623;SDS011;10471;42.736;23.346;2022-12-26T05:08:33;140.77;;;54.37;;
20623;SDS011;10471;42.736;23.346;2022-12-26T05:11:19;136.67;;;54.40;;
20623;SDS011;10471;42.736;23.346;2022-12-26T05:13:45;143.60;;;52.03;;
20623;SDS011;10471;42.736;23.346;2022-12-26T05:16:10;134.63;;;49.97;;
20623;SDS011;10471;42.736;23.346;2022-12-26T05:18:54;105.20;;;40.17;;
20623;SDS011;10471;42.736;23.346;2022-12-26T05:21:38;103.47;;;37.47;;
20623;SDS011;10471;42.736;23.346;2022-12-26T05:24:22;118.93;;;35.70;;
20623;SDS011;10471;42.736;23.346;2022-12-26T05:27:11;94.43;;;36.73;;
20623;SDS011;10471;42.736;23.346;2022-12-26T05:29:58;102.53;;;40.40;;
20623;SDS011;10471;42.736;23.346;2022-12-26T05:32:24;98.00;;;42.13;;
20623;SDS011;10471;42.736;23.346;2022-12-26T05:35:08;95.43;;;41.87;;
20623;SDS011;10471;42.736;23.346;2022-12-26T05:37:34;89.43;;;41.53;;
20623;SDS011;10471;42.736;23.346;2022-12-26T05:39:59;92.43;;;43.97;;
20623;SDS011;10471;42.736;23.346;2022-12-26T05:42:25;109.37;;;48.20;;
20623;SDS011;10471;42.736;23.346;2022-12-26T05:44:50;102.77;;;47.60;;
20623;SDS011;10471;42.736;23.346;2022-12-26T05:47:16;116.97;;;51.60;;
20623;SDS011;10471;42.736;23.346;2022-12-26T05:49:41;122.53;;;53.77;;
20623;SDS011;10471;42.736;23.346;2022-12-26T05:52:06;141.90;;;60.27;;
20623;SDS011;10471;42.736;23.346;2022-12-26T05:54:32;128.77;;;58.30;;
20623;SDS011;10471;42.736;23.346;2022-12-26T05:56:57;109.33;;;52.90;;
20623;SDS011;10471;42.736;23.346;2022-12-26T05:59:23;109.57;;;52.90;;
20623;SDS011;10471;42.736;23.346;2022-12-26T06:01:49;122.10;;;56.90;;
20623;SDS011;10471;42.736;23.346;2022-12-26T06:04:14;107.23;;;49.80;;
20623;SDS011;10471;42.736;23.346;2022-12-26T06:06:39;118.10;;;51.30;;
20623;SDS011;10471;42.736;23.346;2022-12-26T06:09:05;127.73;;;57.77;;
20623;SDS011;10471;42.736;23.346;2022-12-26T06:11:30;109.93;;;54.63;;
20623;SDS011;10471;42.736;23.346;2022-12-26T06:13:56;106.60;;;50.10;;
20623;SDS011;10471;42.736;23.346;2022-12-26T06:16:21;100.20;;;44.97;;
20623;SDS011;10471;42.736;23.346;2022-12-26T06:18:47;99.13;;;46.80;;
20623;SDS011;10471;42.736;23.346;2022-12-26T06:21:14;97.60;;;46.13;;
20623;SDS011;10471;42.736;23.346;2022-12-26T06:23:42;102.80;;;47.53;;
20623;SDS011;10471;42.736;23.346;2022-12-26T06:26:07;95.97;;;47.27;;
20623;SDS011;10471;42.736;23.346;2022-12-26T06:28:34;102.53;;;48.13;;
20623;SDS011;10471;42.736;23.346;2022-12-26T06:31:00;110.87;;;48.30;;
20623;SDS011;10471;42.736;23.346;2022-12-26T06:33:34;101.33;;;49.43;;
20623;SDS011;10471;42.736;23.346;2022-12-26T06:36:19;118.13;;;54.53;;
20623;SDS011;10471;42.736;23.346;2022-12-26T06:38:46;169.73;;;73.00;;
20623;SDS011;10471;42.736;23.346;2022-12-26T06:41:12;167.47;;;73.77;;
20623;SDS011;10471;42.736;23.346;2022-12-26T06:43:40;148.13;;;66.97;;
20623;SDS011;10471;42.736;23.346;2022-12-26T06:46:06;125.23;;;60.23;;
20623;SDS011;10471;42.736;23.346;2022-12-26T06:48:34;123.13;;;56.40;;
20623;SDS011;10471;42.736;23.346;2022-12-26T06:51:04;115.63;;;56.07;;
20623;SDS011;10471;42.736;23.346;2022-12-26T06:53:32;115.37;;;56.90;;
20623;SDS011;10471;42.736;23.346;2022-12-26T06:56:05;127.60;;;63.83;;
20623;SDS011;10471;42.736;23.346;2022-12-26T06:58:35;122.83;;;57.37;;
20623;SDS011;10471;42.736;23.346;2022-12-26T07:01:07;117.83;;;58.37;;
20623;SDS011;10471;42.736;23.346;2022-12-26T07:03:35;106.67;;;55.07;;
20623;SDS011;10471;42.736;23.346;2022-12-26T07:06:04;132.07;;;64.17;;
20623;SDS011;10471;42.736;23.346;2022-12-26T07:08:32;122.57;;;63.37;;
20623;SDS011;10471;42.736;23.346;2022-12-26T07:10:57;157.47;;;81.83;;
20623;SDS011;10471;42.736;23.346;2022-12-26T07:13:23;141.53;;;71.90;;
20623;SDS011;10471;42.736;23.346;2022-12-26T07:15:48;149.93;;;78.97;;
20623;SDS011;10471;42.736;23.346;2022-12-26T07:18:14;148.73;;;77.17;;
20623;SDS011;10471;42.736;23.346;2022-12-26T07:20:39;145.10;;;74.67;;
20623;SDS011;10471;42.736;23.346;2022-12-26T07:23:04;140.70;;;72.67;;
20623;SDS011;10471;42.736;23.346;2022-12-26T07:25:30;133.50;;;68.77;;
20623;SDS011;10471;42.736;23.346;2022-12-26T07:27:55;134.00;;;69.80;;
20623;SDS011;10471;42.736;23.346;2022-12-26T07:30:20;174.57;;;87.13;;
20623;SDS011;10471;42.736;23.346;2022-12-26T07:32:46;197.40;;;100.23;;
20623;SDS011;10471;42.736;23.346;2022-12-26T07:35:11;145.23;;;83.73;;
20623;SDS011;10471;42.736;23.346;2022-12-26T07:37:36;155.27;;;87.37;;
20623;SDS011;10471;42.736;23.346;2022-12-26T07:40:02;136.87;;;71.73;;
20623;SDS011;10471;42.736;23.346;2022-12-26T07:42:28;138.60;;;77.33;;
20623;SDS011;10471;42.736;23.346;2022-12-26T07:44:53;145.67;;;81.23;;
20623;SDS011;10471;42.736;23.346;2022-12-26T07:47:19;148.73;;;81.27;;
20623;SDS011;10471;42.736;23.346;2022-12-26T07:49:44;146.17;;;78.20;;
20623;SDS011;10471;42.736;23.346;2022-12-26T07:52:09;134.50;;;70.07;;
20623;SDS011;10471;42.736;23.346;2022-12-26T07:54:35;125.97;;;64.37;;
20623;SDS011;10471;42.736;23.346;2022-12-26T07:57:00;117.87;;;61.60;;
20623;SDS011;10471;42.736;23.346;2022-12-26T07:59:25;107.67;;;55.63;;
20623;SDS011;10471;42.736;23.346;2022-12-26T08:01:51;101.37;;;55.63;;
20623;SDS011;10471;42.736;23.346;2022-12-26T08:04:16;100.47;;;53.10;;
20623;SDS011;10471;42.736;23.346;2022-12-26T08:06:42;104.83;;;56.03;;
20623;SDS011;10471;42.736;23.346;2022-12-26T08:09:12;96.93;;;51.43;;
20623;SDS011;10471;42.736;23.346;2022-12-26T08:11:41;81.43;;;45.87;;
20623;SDS011;10471;42.736;23.346;2022-12-26T08:14:09;66.27;;;38.13;;
20623;SDS011;10471;42.736;23.346;2022-12-26T08:16:36;65.80;;;39.27;;
20623;SDS011;10471;42.736;23.346;2022-12-26T08:19:01;60.97;;;36.47;;
20623;SDS011;10471;42.736;23.346;2022-12-26T08:21:28;60.10;;;34.53;;
20623;SDS011;10471;42.736;23.346;2022-12-26T08:23:53;90.10;;;43.67;;
20623;SDS011;10471;42.736;23.346;2022-12-26T08:26:19;69.87;;;38.93;;
20623;SDS011;10471;42.736;23.346;2022-12-26T08:28:48;73.60;;;44.33;;
20623;SDS011;10471;42.736;23.346;2022-12-26T08:31:15;95.30;;;48.03;;
20623;SDS011;10471;42.736;23.346;2022-12-26T08:33:41;98.63;;;51.27;;
20623;SDS011;10471;42.736;23.346;2022-12-26T08:36:07;110.30;;;54.57;;
20623;SDS011;10471;42.736;23.346;2022-12-26T08:38:35;96.53;;;49.33;;
20623;SDS011;10471;42.736;23.346;2022-12-26T08:41:01;77.93;;;41.53;;
20623;SDS011;10471;42.736;23.346;2022-12-26T08:43:26;106.70;;;52.73;;
20623;SDS011;10471;42.736;23.346;2022-12-26T08:45:56;92.13;;;46.83;;
20623;SDS011;10471;42.736;23.346;2022-12-26T08:48:26;69.60;;;38.37;;
20623;SDS011;10471;42.736;23.346;2022-12-26T08:50:55;65.93;;;37.37;;
20623;SDS011;10471;42.736;23.346;2022-12-26T08:53:24;58.67;;;33.93;;
20623;SDS011;10471;42.736;23.346;2022-12-26T08:55:51;84.53;;;47.13;;
20623;SDS011;10471;42.736;23.346;2022-12-26T08:58:16;97.63;;;51.77;;
20623;SDS011;10471;42.736;23.346;2022-12-26T09:00:42;113.23;;;64.33;;
20623;SDS011;10471;42.736;23.346;2022-12-26T09:03:07;74.90;;;44.27;;
20623;SDS011;10471;42.736;23.346;2022-12-26T09:05:33;200.13;;;97.57;;
20623;SDS011;10471;42.736;23.346;2022-12-26T09:07:58;59.33;;;35.53;;
20623;SDS011;10471;42.736;23.346;2022-12-26T09:10:24;55.77;;;36.43;;
20623;SDS011;10471;42.736;23.346;2022-12-26T09:12:50;69.87;;;40.47;;
20623;SDS011;10471;42.736;23.346;2022-12-26T09:15:15;64.27;;;37.40;;
20623;SDS011;10471;42.736;23.346;2022-12-26T09:17:40;62.63;;;36.50;;
20623;SDS011;10471;42.736;23.346;2022-12-26T09:20:06;63.47;;;38.87;;
20623;SDS011;10471;42.736;23.346;2022-12-26T09:22:32;62.43;;;37.57;;
20623;SDS011;10471;42.736;23.346;2022-12-26T09:25:18;45.90;;;28.97;;
20623;SDS011;10471;42.736;23.346;2022-12-26T09:27:46;47.40;;;29.87;;
20623;SDS011;10471;42.736;23.346;2022-12-26T09:30:13;45.53;;;29.43;;
20623;SDS011;10471;42.736;23.346;2022-12-26T09:32:39;49.00;;;30.73;;
20623;SDS011;10471;42.736;23.346;2022-12-26T09:35:04;41.67;;;27.97;;
20623;SDS011;10471;42.736;23.346;2022-12-26T09:37:30;44.67;;;29.30;;
20623;SDS011;10471;42.736;23.346;2022-12-26T09:39:55;53.43;;;30.90;;
20623;SDS011;10471;42.736;23.346;2022-12-26T09:47:33;51.97;;;33.40;;
20623;SDS011;10471;42.736;23.346;2022-12-26T09:50:03;44.23;;;29.60;;
20623;SDS011;10471;42.736;23.346;2022-12-26T09:52:48;47.27;;;31.60;;
20623;SDS011;10471;42.736;23.346;2022-12-26T09:55:24;57.93;;;36.67;;
20623;SDS011;10471;42.736;23.346;2022-12-26T09:57:51;60.17;;;39.33;;
20623;SDS011;10471;42.736;23.346;2022-12-26T10:00:23;63.40;;;40.37;;
20623;SDS011;10471;42.736;23.346;2022-12-26T10:02:53;65.10;;;40.90;;
20623;SDS011;10471;42.736;23.346;2022-12-26T10:05:21;70.43;;;45.90;;
20623;SDS011;10471;42.736;23.346;2022-12-26T10:08:00;75.63;;;48.47;;
20623;SDS011;10471;42.736;23.346;2022-12-26T10:10:45;76.87;;;50.37;;
20623;SDS011;10471;42.736;23.346;2022-12-26T10:13:22;84.97;;;53.30;;
20623;SDS011;10471;42.736;23.346;2022-12-26T10:16:00;86.10;;;53.77;;
20623;SDS011;10471;42.736;23.346;2022-12-26T10:24:21;65.90;;;44.43;;
20623;SDS011;10471;42.736;23.346;2022-12-26T10:27:00;71.57;;;43.03;;
20623;SDS011;10471;42.736;23.346;2022-12-26T10:29:41;57.20;;;38.97;;
20623;SDS011;10471;42.736;23.346;2022-12-26T10:32:32;53.20;;;36.27;;
20623;SDS011;10471;42.736;23.346;2022-12-26T10:35:10;53.30;;;34.73;;
20623;SDS011;10471;42.736;23.346;2022-12-26T10:37:45;40.93;;;26.53;;
20623;SDS011;10471;42.736;23.346;2022-12-26T10:43:09;48.17;;;28.73;;
20623;SDS011;10471;42.736;23.346;2022-12-26T10:46:05;44.03;;;28.57;;
20623;SDS011;10471;42.736;23.346;2022-12-26T10:48:35;40.93;;;27.60;;
20623;SDS011;10471;42.736;23.346;2022-12-26T10:51:00;39.57;;;26.63;;
20623;SDS011;10471;42.736;23.346;2022-12-26T10:53:27;44.43;;;26.27;;
20623;SDS011;10471;42.736;23.346;2022-12-26T10:55:52;40.03;;;26.47;;
20623;SDS011;10471;42.736;23.346;2022-12-26T10:58:19;39.40;;;28.23;;
20623;SDS011;10471;42.736;23.346;2022-12-26T11:00:47;24.57;;;16.70;;
20623;SDS011;10471;42.736;23.346;2022-12-26T11:03:14;28.70;;;18.10;;
20623;SDS011;10471;42.736;23.346;2022-12-26T11:05:43;37.00;;;22.53;;
20623;SDS011;10471;42.736;23.346;2022-12-26T11:13:36;37.07;;;23.30;;
20623;SDS011;10471;42.736;23.346;2022-12-26T11:16:04;30.03;;;19.40;;
20623;SDS011;10471;42.736;23.346;2022-12-26T11:18:39;30.67;;;22.60;;
20623;SDS011;10471;42.736;23.346;2022-12-26T11:21:19;37.23;;;24.33;;
20623;SDS011;10471;42.736;23.346;2022-12-26T11:24:09;47.37;;;30.30;;
20623;SDS011;10471;42.736;23.346;2022-12-26T11:26:40;50.10;;;31.67;;
20623;SDS011;10471;42.736;23.346;2022-12-26T11:29:08;44.70;;;30.07;;
20623;SDS011;10471;42.736;23.346;2022-12-26T11:31:37;49.17;;;30.40;;
20623;SDS011;10471;42.736;23.346;2022-12-26T11:34:07;47.23;;;30.33;;
20623;SDS011;10471;42.736;23.346;2022-12-26T11:36:35;45.37;;;29.50;;
20623;SDS011;10471;42.736;23.346;2022-12-26T11:39:05;43.93;;;28.47;;
20623;SDS011;10471;42.736;23.346;2022-12-26T11:41:43;44.73;;;29.23;;
20623;SDS011;10471;42.736;23.346;2022-12-26T11:49:50;42.57;;;28.33;;
20623;SDS011;10471;42.736;23.346;2022-12-26T12:07:02;37.67;;;22.57;;
20623;SDS011;10471;42.736;23.346;2022-12-26T12:19:47;34.33;;;23.50;;
20623;SDS011;10471;42.736;23.346;2022-12-26T12:27:33;36.53;;;23.13;;
20623;SDS011;10471;42.736;23.346;2022-12-26T12:32:51;29.73;;;20.50;;
20623;SDS011;10471;42.736;23.346;2022-12-26T12:41:08;23.47;;;16.60;;
20623;SDS011;10471;42.736;23.346;2022-12-26T12:43:55;23.43;;;14.23;;
20623;SDS011;10471;42.736;23.346;2022-12-26T12:52:12;16.33;;;11.70;;
20623;SDS011;10471;42.736;23.346;2022-12-26T13:00:44;17.30;;;10.97;;
20623;SDS011;10471;42.736;23.346;2022-12-26T13:06:04;16.57;;;10.53;;
20623;SDS011;10471;42.736;23.346;2022-12-26T13:11:25;17.73;;;10.87;;
20623;SDS011;10471;42.736;23.346;2022-12-26T13:16:28;20.80;;;12.00;;
20623;SDS011;10471;42.736;23.346;2022-12-26T13:19:09;17.40;;;11.57;;
20623;SDS011;10471;42.736;23.346;2022-12-26T13:21:42;19.07;;;9.90;;
20623;SDS011;10471;42.736;23.346;2022-12-26T13:24:12;20.63;;;11.67;;
20623;SDS011;10471;42.736;23.346;2022-12-26T13:27:03;23.27;;;12.50;;
20623;SDS011;10471;42.736;23.346;2022-12-26T13:29:39;18.73;;;10.93;;
20623;SDS011;10471;42.736;23.346;2022-12-26T13:34:44;21.23;;;11.67;;
20623;SDS011;10471;42.736;23.346;2022-12-26T13:40:20;18.93;;;12.10;;
20623;SDS011;10471;42.736;23.346;2022-12-26T13:48:53;21.33;;;14.30;;
20623;SDS011;10471;42.736;23.346;2022-12-26T13:50:56;28.37;;;17.47;;
20623;SDS011;10471;42.736;23.346;2022-12-26T13:55:50;28.93;;;15.83;;
20623;SDS011;10471;42.736;23.346;2022-12-26T14:03:40;24.00;;;15.00;;
20623;SDS011;10471;42.736;23.346;2022-12-26T14:09:18;19.10;;;12.13;;
20623;SDS011;10471;42.736;23.346;2022-12-26T14:39:27;65.63;;;28.83;;
20623;SDS011;10471;42.736;23.346;2022-12-26T14:47:40;127.87;;;53.47;;
20623;SDS011;10471;42.736;23.346;2022-12-26T14:55:53;135.00;;;56.23;;
20623;SDS011;10471;42.736;23.346;2022-12-26T15:06:28;69.10;;;37.10;;
20623;SDS011;10471;42.736;23.346;2022-12-26T15:15:09;56.83;;;32.23;;
20623;SDS011;10471;42.736;23.346;2022-12-26T15:23:52;55.17;;;27.20;;
20623;SDS011;10471;42.736;23.346;2022-12-26T15:35:11;106.90;;;46.60;;
20623;SDS011;10471;42.736;23.346;2022-12-26T15:40:22;56.80;;;31.00;;
20623;SDS011;10471;42.736;23.346;2022-12-26T16:04:50;98.53;;;45.40;;
20623;SDS011;10471;42.736;23.346;2022-12-26T16:10:02;76.57;;;36.33;;
20623;SDS011;10471;42.736;23.346;2022-12-26T16:15:43;90.97;;;46.20;;
20623;SDS011;10471;42.736;23.346;2022-12-26T16:18:18;96.03;;;50.60;;
20623;SDS011;10471;42.736;23.346;2022-12-26T16:20:46;116.70;;;64.17;;
20623;SDS011;10471;42.736;23.346;2022-12-26T16:23:34;148.87;;;78.23;;
20623;SDS011;10471;42.736;23.346;2022-12-26T16:26:02;129.60;;;67.67;;
20623;SDS011;10471;42.736;23.346;2022-12-26T16:30:57;150.90;;;74.93;;
20623;SDS011;10471;42.736;23.346;2022-12-26T16:33:24;152.97;;;73.73;;
20623;SDS011;10471;42.736;23.346;2022-12-26T16:35:53;745.40;;;430.27;;
20623;SDS011;10471;42.736;23.346;2022-12-26T16:38:20;828.57;;;410.67;;
20623;SDS011;10471;42.736;23.346;2022-12-26T16:40:50;593.57;;;294.77;;
20623;SDS011;10471;42.736;23.346;2022-12-26T16:45:41;213.17;;;94.97;;
20623;SDS011;10471;42.736;23.346;2022-12-26T16:48:10;205.03;;;92.27;;
20623;SDS011;10471;42.736;23.346;2022-12-26T16:50:47;263.23;;;116.80;;
20623;SDS011;10471;42.736;23.346;2022-12-26T16:53:22;196.60;;;91.63;;
20623;SDS011;10471;42.736;23.346;2022-12-26T16:58:36;371.97;;;190.93;;
20623;SDS011;10471;42.736;23.346;2022-12-26T17:06:15;176.03;;;80.37;;
20623;SDS011;10471;42.736;23.346;2022-12-26T17:08:46;228.73;;;100.57;;
20623;SDS011;10471;42.736;23.346;2022-12-26T17:11:14;171.30;;;80.07;;
20623;SDS011;10471;42.736;23.346;2022-12-26T17:13:40;164.70;;;76.70;;
20623;SDS011;10471;42.736;23.346;2022-12-26T17:16:15;550.17;;;323.57;;
20623;SDS011;10471;42.736;23.346;2022-12-26T17:18:45;209.87;;;112.10;;
20623;SDS011;10471;42.736;23.346;2022-12-26T17:23:57;262.13;;;128.60;;
20623;SDS011;10471;42.736;23.346;2022-12-26T17:26:32;194.27;;;109.37;;
20623;SDS011;10471;42.736;23.346;2022-12-26T17:29:00;202.67;;;101.43;;
20623;SDS011;10471;42.736;23.346;2022-12-26T17:34:00;139.23;;;70.83;;
20623;SDS011;10471;42.736;23.346;2022-12-26T17:36:30;127.50;;;64.93;;
20623;SDS011;10471;42.736;23.346;2022-12-26T17:39:08;141.63;;;70.13;;
20623;SDS011;10471;42.736;23.346;2022-12-26T17:41:47;156.83;;;82.33;;
20623;SDS011;10471;42.736;23.346;2022-12-26T17:49:45;148.07;;;76.97;;
20623;SDS011;10471;42.736;23.346;2022-12-26T17:52:12;169.43;;;87.03;;
20623;SDS011;10471;42.736;23.346;2022-12-26T17:54:38;155.13;;;84.83;;
20623;SDS011;10471;42.736;23.346;2022-12-26T17:57:04;386.17;;;217.10;;
20623;SDS011;10471;42.736;23.346;2022-12-26T17:59:29;240.13;;;125.63;;
20623;SDS011;10471;42.736;23.346;2022-12-26T18:01:55;306.07;;;164.93;;
20623;SDS011;10471;42.736;23.346;2022-12-26T18:04:20;252.93;;;133.30;;
20623;SDS011;10471;42.736;23.346;2022-12-26T18:06:45;262.87;;;142.70;;
20623;SDS011;10471;42.736;23.346;2022-12-26T18:09:32;313.40;;;174.10;;
20623;SDS011;10471;42.736;23.346;2022-12-26T18:11:57;279.23;;;153.93;;
20623;SDS011;10471;42.736;23.346;2022-12-26T18:14:22;246.83;;;138.03;;
20623;SDS011;10471;42.736;23.346;2022-12-26T18:16:48;225.37;;;119.77;;
20623;SDS011;10471;42.736;23.346;2022-12-26T18:19:15;198.40;;;107.67;;
20623;SDS011;10471;42.736;23.346;2022-12-26T18:21:42;237.23;;;129.70;;
20623;SDS011;10471;42.736;23.346;2022-12-26T18:24:08;430.67;;;246.73;;
20623;SDS011;10471;42.736;23.346;2022-12-26T18:26:33;527.77;;;313.47;;
20623;SDS011;10471;42.736;23.346;2022-12-26T18:28:59;418.93;;;234.07;;
20623;SDS011;10471;42.736;23.346;2022-12-26T18:31:24;505.10;;;293.13;;
20623;SDS011;10471;42.736;23.346;2022-12-26T18:33:51;422.90;;;239.20;;
20623;SDS011;10471;42.736;23.346;2022-12-26T18:36:17;384.13;;;214.57;;
20623;SDS011;10471;42.736;23.346;2022-12-26T18:38:44;532.23;;;307.57;;
20623;SDS011;10471;42.736;23.346;2022-12-26T18:41:13;380.47;;;199.80;;
20623;SDS011;10471;42.736;23.346;2022-12-26T18:43:40;351.00;;;184.13;;
20623;SDS011;10471;42.736;23.346;2022-12-26T18:46:08;424.77;;;249.70;;
20623;SDS011;10471;42.736;23.346;2022-12-26T18:48:53;379.43;;;223.33;;
20623;SDS011;10471;42.736;23.346;2022-12-26T18:51:21;361.83;;;206.07;;
20623;SDS011;10471;42.736;23.346;2022-12-26T18:53:47;340.43;;;177.67;;
20623;SDS011;10471;42.736;23.346;2022-12-26T18:56:16;417.77;;;230.97;;
20623;SDS011;10471;42.736;23.346;2022-12-26T18:58:44;368.77;;;193.93;;